sensor_id;sensor_type;location;lat;lon;timestamp;P1;durP1;ratioP1;P2;durP2;ratioP2
37131;SDS011;23035;50.032;21.978;2023-07-29T00:09:14;5.20;;;3.00;;
37131;SDS011;23035;50.032;21.978;2023-07-29T00:19:22;4.05;;;2.67;;
37131;SDS011;23035;50.032;21.978;2023-07-29T00:24:28;3.83;;;3.15;;
37131;SDS011;23035;50.032;21.978;2023-07-29T00:29:32;5.05;;;3.25;;
37131;SDS011;23035;50.032;21.978;2023-07-29T00:34:36;5.28;;;3.28;;
37131;SDS011;23035;50.032;21.978;2023-07-29T00:39:42;6.53;;;3.50;;
37131;SDS011;23035;50.032;21.978;2023-07-29T00:49:50;4.97;;;3.22;;
37131;SDS011;23035;50.032;21.978;2023-07-29T00:54:56;3.77;;;3.07;;
37131;SDS011;23035;50.032;21.978;2023-07-29T01:05:06;4.90;;;3.30;;
37131;SDS011;23035;50.032;21.978;2023-07-29T01:10:13;6.13;;;3.28;;
37131;SDS011;23035;50.032;21.978;2023-07-29T01:15:25;6.13;;;2.97;;
37131;SDS011;23035;50.032;21.978;2023-07-29T01:20:37;4.35;;;3.00;;
37131;SDS011;23035;50.032;21.978;2023-07-29T01:25:45;5.05;;;3.33;;
37131;SDS011;23035;50.032;21.978;2023-07-29T01:35:57;4.20;;;3.15;;
37131;SDS011;23035;50.032;21.978;2023-07-29T01:41:07;5.43;;;3.50;;
37131;SDS011;23035;50.032;21.978;2023-07-29T01:46:13;7.63;;;3.20;;
37131;SDS011;23035;50.032;21.978;2023-07-29T01:51:18;4.50;;;3.10;;
37131;SDS011;23035;50.032;21.978;2023-07-29T01:56:24;3.92;;;3.40;;
37131;SDS011;23035;50.032;21.978;2023-07-29T02:01:30;8.27;;;3.65;;
37131;SDS011;23035;50.032;21.978;2023-07-29T02:06:35;12.00;;;3.67;;
37131;SDS011;23035;50.032;21.978;2023-07-29T02:11:41;6.60;;;3.53;;
37131;SDS011;23035;50.032;21.978;2023-07-29T02:21:49;8.20;;;3.75;;
37131;SDS011;23035;50.032;21.978;2023-07-29T02:26:55;6.38;;;4.13;;
37131;SDS011;23035;50.032;21.978;2023-07-29T02:31:59;4.82;;;3.58;;
37131;SDS011;23035;50.032;21.978;2023-07-29T02:37:04;4.20;;;3.20;;
37131;SDS011;23035;50.032;21.978;2023-07-29T02:42:12;9.52;;;4.65;;
37131;SDS011;23035;50.032;21.978;2023-07-29T02:47:16;6.38;;;3.88;;
37131;SDS011;23035;50.032;21.978;2023-07-29T02:52:20;6.63;;;3.45;;
37131;SDS011;23035;50.032;21.978;2023-07-29T02:57:26;5.93;;;3.53;;
37131;SDS011;23035;50.032;21.978;2023-07-29T03:07:35;8.25;;;3.72;;
37131;SDS011;23035;50.032;21.978;2023-07-29T03:12:45;8.80;;;4.53;;
37131;SDS011;23035;50.032;21.978;2023-07-29T03:17:53;7.47;;;4.00;;
37131;SDS011;23035;50.032;21.978;2023-07-29T03:23:02;8.43;;;3.85;;
37131;SDS011;23035;50.032;21.978;2023-07-29T03:28:07;8.52;;;3.80;;
37131;SDS011;23035;50.032;21.978;2023-07-29T03:33:12;4.40;;;3.53;;
37131;SDS011;23035;50.032;21.978;2023-07-29T03:38:16;6.72;;;3.33;;
37131;SDS011;23035;50.032;21.978;2023-07-29T03:43:21;9.70;;;4.00;;
37131;SDS011;23035;50.032;21.978;2023-07-29T03:48:26;5.93;;;3.88;;
37131;SDS011;23035;50.032;21.978;2023-07-29T03:53:30;8.00;;;3.35;;
37131;SDS011;23035;50.032;21.978;2023-07-29T03:58:35;5.60;;;3.78;;
37131;SDS011;23035;50.032;21.978;2023-07-29T04:03:39;6.28;;;3.72;;
37131;SDS011;23035;50.032;21.978;2023-07-29T04:08:44;7.22;;;3.65;;
37131;SDS011;23035;50.032;21.978;2023-07-29T04:13:52;13.75;;;3.50;;
37131;SDS011;23035;50.032;21.978;2023-07-29T04:18:57;6.38;;;3.67;;
37131;SDS011;23035;50.032;21.978;2023-07-29T04:24:01;5.90;;;3.78;;
37131;SDS011;23035;50.032;21.978;2023-07-29T04:29:09;5.78;;;2.97;;
37131;SDS011;23035;50.032;21.978;2023-07-29T04:34:14;7.00;;;3.17;;
37131;SDS011;23035;50.032;21.978;2023-07-29T04:39:20;9.20;;;3.55;;
37131;SDS011;23035;50.032;21.978;2023-07-29T04:44:26;8.23;;;3.40;;
37131;SDS011;23035;50.032;21.978;2023-07-29T04:54:34;6.95;;;3.75;;
37131;SDS011;23035;50.032;21.978;2023-07-29T04:59:40;5.82;;;3.88;;
37131;SDS011;23035;50.032;21.978;2023-07-29T05:04:44;7.05;;;3.13;;
37131;SDS011;23035;50.032;21.978;2023-07-29T05:09:48;6.45;;;3.08;;
37131;SDS011;23035;50.032;21.978;2023-07-29T05:14:54;5.82;;;3.00;;
37131;SDS011;23035;50.032;21.978;2023-07-29T05:19:58;4.35;;;3.20;;
37131;SDS011;23035;50.032;21.978;2023-07-29T05:25:02;4.53;;;3.42;;
37131;SDS011;23035;50.032;21.978;2023-07-29T05:30:09;7.05;;;3.10;;
37131;SDS011;23035;50.032;21.978;2023-07-29T05:35:14;5.45;;;3.60;;
37131;SDS011;23035;50.032;21.978;2023-07-29T05:40:18;5.23;;;3.00;;
37131;SDS011;23035;50.032;21.978;2023-07-29T05:45:24;3.97;;;2.72;;
37131;SDS011;23035;50.032;21.978;2023-07-29T05:50:28;6.35;;;2.70;;
37131;SDS011;23035;50.032;21.978;2023-07-29T05:55:33;4.70;;;2.80;;
37131;SDS011;23035;50.032;21.978;2023-07-29T06:41:41;4.85;;;3.05;;
37131;SDS011;23035;50.032;21.978;2023-07-29T06:46:47;7.53;;;3.30;;
37131;SDS011;23035;50.032;21.978;2023-07-29T06:51:52;8.10;;;3.20;;
37131;SDS011;23035;50.032;21.978;2023-07-29T06:56:57;4.03;;;3.33;;
37131;SDS011;23035;50.032;21.978;2023-07-29T07:02:02;4.00;;;2.92;;
37131;SDS011;23035;50.032;21.978;2023-07-29T07:07:06;4.63;;;3.80;;
37131;SDS011;23035;50.032;21.978;2023-07-29T07:12:12;6.43;;;3.17;;
37131;SDS011;23035;50.032;21.978;2023-07-29T07:17:16;3.30;;;3.00;;
37131;SDS011;23035;50.032;21.978;2023-07-29T07:22:20;5.55;;;2.80;;
37131;SDS011;23035;50.032;21.978;2023-07-29T07:27:25;6.38;;;2.90;;
37131;SDS011;23035;50.032;21.978;2023-07-29T07:32:29;5.95;;;2.95;;
37131;SDS011;23035;50.032;21.978;2023-07-29T07:37:33;7.63;;;3.22;;
37131;SDS011;23035;50.032;21.978;2023-07-29T07:42:38;3.15;;;2.85;;
37131;SDS011;23035;50.032;21.978;2023-07-29T07:47:42;3.55;;;3.00;;
37131;SDS011;23035;50.032;21.978;2023-07-29T07:52:46;4.25;;;3.00;;
37131;SDS011;23035;50.032;21.978;2023-07-29T07:57:55;6.45;;;3.20;;
37131;SDS011;23035;50.032;21.978;2023-07-29T08:02:59;6.45;;;2.97;;
37131;SDS011;23035;50.032;21.978;2023-07-29T08:08:04;4.75;;;2.85;;
37131;SDS011;23035;50.032;21.978;2023-07-29T08:13:09;3.75;;;3.13;;
37131;SDS011;23035;50.032;21.978;2023-07-29T08:18:14;6.32;;;3.35;;
37131;SDS011;23035;50.032;21.978;2023-07-29T08:23:20;7.15;;;3.10;;
37131;SDS011;23035;50.032;21.978;2023-07-29T08:28:26;7.43;;;2.83;;
37131;SDS011;23035;50.032;21.978;2023-07-29T08:33:31;4.78;;;2.90;;
37131;SDS011;23035;50.032;21.978;2023-07-29T08:38:36;5.38;;;3.15;;
37131;SDS011;23035;50.032;21.978;2023-07-29T08:43:44;3.77;;;3.00;;
37131;SDS011;23035;50.032;21.978;2023-07-29T08:48:54;4.57;;;3.20;;
37131;SDS011;23035;50.032;21.978;2023-07-29T08:53:59;4.57;;;2.85;;
37131;SDS011;23035;50.032;21.978;2023-07-29T08:59:07;5.32;;;3.13;;
37131;SDS011;23035;50.032;21.978;2023-07-29T09:04:13;3.85;;;3.00;;
37131;SDS011;23035;50.032;21.978;2023-07-29T09:09:17;5.13;;;3.00;;
37131;SDS011;23035;50.032;21.978;2023-07-29T09:14:23;3.50;;;2.73;;
37131;SDS011;23035;50.032;21.978;2023-07-29T09:19:32;5.20;;;2.70;;
37131;SDS011;23035;50.032;21.978;2023-07-29T09:24:40;2.90;;;2.60;;
37131;SDS011;23035;50.032;21.978;2023-07-29T09:29:46;6.25;;;2.50;;
37131;SDS011;23035;50.032;21.978;2023-07-29T09:34:52;3.58;;;2.45;;
37131;SDS011;23035;50.032;21.978;2023-07-29T09:40:02;4.00;;;3.10;;
37131;SDS011;23035;50.032;21.978;2023-07-29T09:45:14;3.17;;;2.70;;
37131;SDS011;23035;50.032;21.978;2023-07-29T09:50:23;5.78;;;2.60;;
37131;SDS011;23035;50.032;21.978;2023-07-29T09:55:28;4.50;;;2.30;;
37131;SDS011;23035;50.032;21.978;2023-07-29T10:00:39;2.65;;;2.35;;
37131;SDS011;23035;50.032;21.978;2023-07-29T10:05:47;4.10;;;2.63;;
37131;SDS011;23035;50.032;21.978;2023-07-29T10:10:57;4.45;;;3.00;;
37131;SDS011;23035;50.032;21.978;2023-07-29T10:21:19;3.30;;;2.55;;
37131;SDS011;23035;50.032;21.978;2023-07-29T10:26:48;2.65;;;2.42;;
37131;SDS011;23035;50.032;21.978;2023-07-29T10:33:06;5.43;;;3.03;;
37131;SDS011;23035;50.032;21.978;2023-07-29T10:38:24;5.60;;;3.13;;
37131;SDS011;23035;50.032;21.978;2023-07-29T10:43:50;7.90;;;3.03;;
37131;SDS011;23035;50.032;21.978;2023-07-29T10:55:41;5.07;;;2.80;;
37131;SDS011;23035;50.032;21.978;2023-07-29T11:01:35;4.68;;;3.33;;
37131;SDS011;23035;50.032;21.978;2023-07-29T11:13:01;3.63;;;3.15;;
37131;SDS011;23035;50.032;21.978;2023-07-29T11:18:20;3.08;;;2.40;;
37131;SDS011;23035;50.032;21.978;2023-07-29T11:23:52;3.42;;;2.40;;
37131;SDS011;23035;50.032;21.978;2023-07-29T11:29:29;4.35;;;2.42;;
37131;SDS011;23035;50.032;21.978;2023-07-29T11:34:53;4.18;;;2.30;;
37131;SDS011;23035;50.032;21.978;2023-07-29T11:40:36;3.60;;;2.53;;
37131;SDS011;23035;50.032;21.978;2023-07-29T11:53:14;2.97;;;2.58;;
37131;SDS011;23035;50.032;21.978;2023-07-29T11:58:37;6.60;;;2.65;;
37131;SDS011;23035;50.032;21.978;2023-07-29T12:03:56;3.30;;;2.47;;
37131;SDS011;23035;50.032;21.978;2023-07-29T12:09:31;4.15;;;2.60;;
37131;SDS011;23035;50.032;21.978;2023-07-29T12:14:48;3.58;;;2.33;;
37131;SDS011;23035;50.032;21.978;2023-07-29T12:19:59;2.30;;;2.10;;
37131;SDS011;23035;50.032;21.978;2023-07-29T12:25:25;3.60;;;2.30;;
37131;SDS011;23035;50.032;21.978;2023-07-29T12:30:41;3.38;;;2.33;;
37131;SDS011;23035;50.032;21.978;2023-07-29T12:35:50;4.13;;;2.10;;
37131;SDS011;23035;50.032;21.978;2023-07-29T12:40:54;2.40;;;2.17;;
37131;SDS011;23035;50.032;21.978;2023-07-29T12:45:59;5.93;;;2.53;;
37131;SDS011;23035;50.032;21.978;2023-07-29T12:51:04;8.60;;;2.63;;
37131;SDS011;23035;50.032;21.978;2023-07-29T12:56:09;2.65;;;2.25;;
37131;SDS011;23035;50.032;21.978;2023-07-29T13:01:13;3.20;;;2.10;;
37131;SDS011;23035;50.032;21.978;2023-07-29T13:06:21;3.53;;;2.40;;
37131;SDS011;23035;50.032;21.978;2023-07-29T13:11:25;4.25;;;2.50;;
37131;SDS011;23035;50.032;21.978;2023-07-29T13:16:29;2.60;;;2.27;;
37131;SDS011;23035;50.032;21.978;2023-07-29T13:21:35;3.90;;;2.67;;
37131;SDS011;23035;50.032;21.978;2023-07-29T13:26:39;9.27;;;2.22;;
37131;SDS011;23035;50.032;21.978;2023-07-29T13:31:45;5.60;;;2.92;;
37131;SDS011;23035;50.032;21.978;2023-07-29T13:36:51;4.18;;;2.30;;
37131;SDS011;23035;50.032;21.978;2023-07-29T13:41:55;3.08;;;2.60;;
37131;SDS011;23035;50.032;21.978;2023-07-29T13:47:02;10.95;;;3.03;;
37131;SDS011;23035;50.032;21.978;2023-07-29T13:52:08;7.97;;;3.00;;
37131;SDS011;23035;50.032;21.978;2023-07-29T13:57:12;3.90;;;2.80;;
37131;SDS011;23035;50.032;21.978;2023-07-29T14:02:16;8.63;;;3.20;;
37131;SDS011;23035;50.032;21.978;2023-07-29T14:07:22;5.83;;;3.10;;
37131;SDS011;23035;50.032;21.978;2023-07-29T14:12:26;5.90;;;3.10;;
37131;SDS011;23035;50.032;21.978;2023-07-29T14:17:30;4.32;;;3.08;;
37131;SDS011;23035;50.032;21.978;2023-07-29T14:22:36;4.20;;;2.90;;
37131;SDS011;23035;50.032;21.978;2023-07-29T14:27:40;4.53;;;3.33;;
37131;SDS011;23035;50.032;21.978;2023-07-29T14:32:44;5.85;;;2.95;;
37131;SDS011;23035;50.032;21.978;2023-07-29T14:37:50;6.27;;;3.20;;
37131;SDS011;23035;50.032;21.978;2023-07-29T14:42:54;4.38;;;3.17;;
37131;SDS011;23035;50.032;21.978;2023-07-29T14:47:58;7.77;;;3.60;;
37131;SDS011;23035;50.032;21.978;2023-07-29T14:53:04;6.38;;;3.70;;
37131;SDS011;23035;50.032;21.978;2023-07-29T14:58:08;7.55;;;3.60;;
37131;SDS011;23035;50.032;21.978;2023-07-29T15:03:12;5.17;;;3.43;;
37131;SDS011;23035;50.032;21.978;2023-07-29T15:08:18;5.85;;;3.60;;
37131;SDS011;23035;50.032;21.978;2023-07-29T15:13:22;6.03;;;3.67;;
37131;SDS011;23035;50.032;21.978;2023-07-29T15:18:26;6.07;;;3.57;;
37131;SDS011;23035;50.032;21.978;2023-07-29T15:23:34;7.38;;;3.50;;
37131;SDS011;23035;50.032;21.978;2023-07-29T15:28:38;5.15;;;3.05;;
37131;SDS011;23035;50.032;21.978;2023-07-29T15:33:42;5.47;;;3.33;;
37131;SDS011;23035;50.032;21.978;2023-07-29T15:38:48;6.15;;;3.72;;
37131;SDS011;23035;50.032;21.978;2023-07-29T15:43:52;7.43;;;3.65;;
37131;SDS011;23035;50.032;21.978;2023-07-29T15:48:57;11.65;;;5.53;;
37131;SDS011;23035;50.032;21.978;2023-07-29T15:54:03;7.13;;;3.83;;
37131;SDS011;23035;50.032;21.978;2023-07-29T15:59:07;4.68;;;3.67;;
37131;SDS011;23035;50.032;21.978;2023-07-29T16:09:17;5.78;;;3.90;;
37131;SDS011;23035;50.032;21.978;2023-07-29T16:14:23;6.07;;;4.20;;
37131;SDS011;23035;50.032;21.978;2023-07-29T16:19:28;5.38;;;4.13;;
37131;SDS011;23035;50.032;21.978;2023-07-29T16:24:33;7.25;;;4.05;;
37131;SDS011;23035;50.032;21.978;2023-07-29T16:29:40;5.60;;;4.28;;
37131;SDS011;23035;50.032;21.978;2023-07-29T16:34:45;8.02;;;3.70;;
37131;SDS011;23035;50.032;21.978;2023-07-29T16:39:50;5.30;;;4.10;;
37131;SDS011;23035;50.032;21.978;2023-07-29T16:44:54;7.53;;;4.20;;
37131;SDS011;23035;50.032;21.978;2023-07-29T16:49:58;6.27;;;3.70;;
37131;SDS011;23035;50.032;21.978;2023-07-29T16:55:13;6.60;;;3.75;;
37131;SDS011;23035;50.032;21.978;2023-07-29T17:00:17;4.28;;;3.88;;
37131;SDS011;23035;50.032;21.978;2023-07-29T17:05:21;7.57;;;3.80;;
37131;SDS011;23035;50.032;21.978;2023-07-29T17:10:27;7.73;;;4.20;;
37131;SDS011;23035;50.032;21.978;2023-07-29T17:15:31;5.68;;;4.15;;
37131;SDS011;23035;50.032;21.978;2023-07-29T17:20:35;5.03;;;3.87;;
37131;SDS011;23035;50.032;21.978;2023-07-29T17:25:40;6.87;;;3.87;;
37131;SDS011;23035;50.032;21.978;2023-07-29T17:30:48;5.88;;;4.35;;
37131;SDS011;23035;50.032;21.978;2023-07-29T17:35:53;4.63;;;3.67;;
37131;SDS011;23035;50.032;21.978;2023-07-29T17:40:59;5.63;;;3.90;;
37131;SDS011;23035;50.032;21.978;2023-07-29T17:46:05;6.88;;;3.80;;
37131;SDS011;23035;50.032;21.978;2023-07-29T17:51:09;7.70;;;3.92;;
37131;SDS011;23035;50.032;21.978;2023-07-29T17:56:14;5.47;;;3.75;;
37131;SDS011;23035;50.032;21.978;2023-07-29T18:01:18;6.50;;;4.38;;
37131;SDS011;23035;50.032;21.978;2023-07-29T18:06:22;8.57;;;4.40;;
37131;SDS011;23035;50.032;21.978;2023-07-29T18:11:28;7.47;;;4.30;;
37131;SDS011;23035;50.032;21.978;2023-07-29T18:16:32;7.47;;;4.25;;
37131;SDS011;23035;50.032;21.978;2023-07-29T18:21:40;8.60;;;4.13;;
37131;SDS011;23035;50.032;21.978;2023-07-29T18:26:45;7.57;;;4.88;;
37131;SDS011;23035;50.032;21.978;2023-07-29T18:31:49;7.15;;;4.38;;
37131;SDS011;23035;50.032;21.978;2023-07-29T18:36:54;12.98;;;4.50;;
37131;SDS011;23035;50.032;21.978;2023-07-29T18:41:59;6.40;;;4.05;;
37131;SDS011;23035;50.032;21.978;2023-07-29T18:47:05;7.38;;;4.57;;
37131;SDS011;23035;50.032;21.978;2023-07-29T18:52:10;9.50;;;4.68;;
37131;SDS011;23035;50.032;21.978;2023-07-29T18:57:17;9.32;;;5.07;;
37131;SDS011;23035;50.032;21.978;2023-07-29T19:02:21;7.47;;;4.82;;
37131;SDS011;23035;50.032;21.978;2023-07-29T19:07:26;8.97;;;4.93;;
37131;SDS011;23035;50.032;21.978;2023-07-29T19:12:31;11.03;;;4.83;;
37131;SDS011;23035;50.032;21.978;2023-07-29T19:17:36;9.88;;;5.20;;
37131;SDS011;23035;50.032;21.978;2023-07-29T19:22:41;8.43;;;4.83;;
37131;SDS011;23035;50.032;21.978;2023-07-29T19:27:46;6.32;;;4.40;;
37131;SDS011;23035;50.032;21.978;2023-07-29T19:32:50;5.05;;;4.13;;
37131;SDS011;23035;50.032;21.978;2023-07-29T19:37:54;9.88;;;4.53;;
37131;SDS011;23035;50.032;21.978;2023-07-29T19:43:00;5.68;;;4.15;;
37131;SDS011;23035;50.032;21.978;2023-07-29T19:48:04;6.90;;;4.40;;
37131;SDS011;23035;50.032;21.978;2023-07-29T19:53:09;5.07;;;4.25;;
37131;SDS011;23035;50.032;21.978;2023-07-29T19:58:14;7.55;;;4.65;;
37131;SDS011;23035;50.032;21.978;2023-07-29T20:03:19;8.18;;;4.10;;
37131;SDS011;23035;50.032;21.978;2023-07-29T20:08:23;6.45;;;4.45;;
37131;SDS011;23035;50.032;21.978;2023-07-29T20:13:29;7.83;;;4.47;;
37131;SDS011;23035;50.032;21.978;2023-07-29T20:18:33;7.43;;;4.55;;
37131;SDS011;23035;50.032;21.978;2023-07-29T20:23:37;8.20;;;4.38;;
37131;SDS011;23035;50.032;21.978;2023-07-29T20:28:43;6.03;;;4.10;;
37131;SDS011;23035;50.032;21.978;2023-07-29T20:33:48;9.52;;;4.20;;
37131;SDS011;23035;50.032;21.978;2023-07-29T20:38:53;8.37;;;3.83;;
37131;SDS011;23035;50.032;21.978;2023-07-29T20:49:04;5.82;;;4.03;;
37131;SDS011;23035;50.032;21.978;2023-07-29T20:54:08;5.18;;;3.70;;
37131;SDS011;23035;50.032;21.978;2023-07-29T20:59:14;6.63;;;4.27;;
37131;SDS011;23035;50.032;21.978;2023-07-29T21:04:18;8.07;;;4.00;;
37131;SDS011;23035;50.032;21.978;2023-07-29T21:09:22;7.07;;;4.30;;
37131;SDS011;23035;50.032;21.978;2023-07-29T21:14:27;5.57;;;3.67;;
37131;SDS011;23035;50.032;21.978;2023-07-29T21:24:36;7.13;;;4.38;;
37131;SDS011;23035;50.032;21.978;2023-07-29T21:29:42;6.65;;;4.00;;
37131;SDS011;23035;50.032;21.978;2023-07-29T21:34:46;5.18;;;3.72;;
37131;SDS011;23035;50.032;21.978;2023-07-29T21:39:50;6.85;;;3.40;;
37131;SDS011;23035;50.032;21.978;2023-07-29T21:44:55;6.30;;;3.80;;
37131;SDS011;23035;50.032;21.978;2023-07-29T21:50:01;6.88;;;4.13;;
37131;SDS011;23035;50.032;21.978;2023-07-29T22:00:12;4.88;;;3.50;;
37131;SDS011;23035;50.032;21.978;2023-07-29T22:05:21;4.53;;;3.22;;
37131;SDS011;23035;50.032;21.978;2023-07-29T22:10:25;4.25;;;3.45;;
37131;SDS011;23035;50.032;21.978;2023-07-29T22:15:33;5.78;;;3.28;;
37131;SDS011;23035;50.032;21.978;2023-07-29T22:20:38;4.05;;;3.40;;
37131;SDS011;23035;50.032;21.978;2023-07-29T22:25:42;4.05;;;3.25;;
37131;SDS011;23035;50.032;21.978;2023-07-29T22:30:47;7.32;;;3.30;;
37131;SDS011;23035;50.032;21.978;2023-07-29T22:35:52;5.65;;;3.22;;
37131;SDS011;23035;50.032;21.978;2023-07-29T22:40:56;6.40;;;3.30;;
37131;SDS011;23035;50.032;21.978;2023-07-29T22:46:01;7.93;;;3.30;;
37131;SDS011;23035;50.032;21.978;2023-07-29T22:51:06;4.00;;;2.88;;
37131;SDS011;23035;50.032;21.978;2023-07-29T22:56:11;3.75;;;2.60;;
37131;SDS011;23035;50.032;21.978;2023-07-29T23:01:18;4.90;;;3.25;;
37131;SDS011;23035;50.032;21.978;2023-07-29T23:06:22;5.60;;;3.33;;
37131;SDS011;23035;50.032;21.978;2023-07-29T23:11:26;5.78;;;3.22;;
37131;SDS011;23035;50.032;21.978;2023-07-29T23:16:32;3.75;;;2.88;;
37131;SDS011;23035;50.032;21.978;2023-07-29T23:21:36;4.68;;;2.78;;
37131;SDS011;23035;50.032;21.978;2023-07-29T23:26:41;3.83;;;2.63;;
37131;SDS011;23035;50.032;21.978;2023-07-29T23:31:47;6.03;;;3.00;;
37131;SDS011;23035;50.032;21.978;2023-07-29T23:41:55;6.40;;;3.08;;
37131;SDS011;23035;50.032;21.978;2023-07-29T23:47:00;5.32;;;3.00;;
37131;SDS011;23035;50.032;21.978;2023-07-29T23:52:05;7.07;;;2.92;;
37131;SDS011;23035;50.032;21.978;2023-07-29T23:57:09;3.22;;;2.55;;
